createdAt,value
2023-04-20T00:02:17.613Z,9.69
2023-04-20T00:04:44.076Z,9.77
2023-04-20T00:07:10.509Z,9.71
2023-04-20T00:09:37.094Z,9.88
2023-04-20T00:12:03.454Z,9.81
2023-04-20T00:14:29.855Z,9.88
2023-04-20T00:16:56.273Z,9.74
2023-04-20T00:19:23.258Z,9.67
2023-04-20T00:21:49.972Z,9.60
2023-04-20T00:24:16.346Z,9.78
2023-04-20T00:26:42.724Z,9.62
2023-04-20T00:29:09.139Z,9.62
2023-04-20T00:31:36.812Z,9.71
2023-04-20T00:34:03.201Z,9.68
2023-04-20T00:36:29.896Z,9.49
2023-04-20T00:38:58.231Z,9.48
2023-04-20T00:41:24.791Z,9.51
2023-04-20T00:43:52.368Z,9.70
2023-04-20T00:46:18.821Z,9.76
2023-04-20T00:48:45.232Z,9.81
2023-04-20T00:51:11.610Z,9.63
2023-04-20T00:53:37.987Z,9.52
2023-04-20T00:56:04.728Z,9.40
2023-04-20T00:58:32.501Z,9.44
2023-04-20T01:00:58.989Z,9.34
2023-04-20T01:03:25.588Z,9.37
2023-04-20T01:05:52.030Z,9.32
2023-04-20T01:08:20.990Z,9.62
2023-04-20T01:10:47.349Z,9.37
2023-04-20T01:13:13.769Z,9.50
2023-04-20T01:15:40.251Z,9.17
2023-04-20T01:18:09.522Z,9.37
2023-04-20T01:20:37.747Z,9.38
2023-04-20T01:23:04.134Z,9.41
2023-04-20T01:25:30.560Z,9.55
2023-04-20T01:27:56.934Z,9.95
2023-04-20T01:30:23.358Z,9.33
2023-04-20T01:32:49.916Z,9.51
2023-04-20T01:35:16.321Z,9.26
2023-04-20T01:37:44.431Z,9.53
2023-04-20T01:40:10.988Z,8.94
2023-04-20T01:42:37.503Z,9.05
2023-04-20T01:45:03.873Z,9.04
2023-04-20T01:47:30.304Z,8.86
2023-04-20T01:49:56.703Z,9.03
2023-04-20T01:52:25.007Z,9.03
2023-04-20T01:54:51.531Z,9.35
2023-04-20T01:57:17.931Z,9.65
2023-04-20T01:59:44.321Z,9.69
2023-04-20T02:02:10.796Z,9.26
2023-04-20T02:04:37.597Z,9.70
2023-04-20T02:07:03.920Z,9.39
2023-04-20T02:09:30.528Z,9.58
2023-04-20T02:11:56.942Z,9.45
2023-04-20T02:14:23.265Z,9.67
2023-04-20T02:16:49.738Z,9.30
2023-04-20T02:19:16.759Z,9.30
2023-04-20T02:21:43.368Z,9.24
2023-04-20T02:24:09.906Z,9.38
2023-04-20T02:26:36.322Z,10.00
2023-04-20T02:29:02.826Z,9.90
2023-04-20T02:31:29.255Z,9.22
2023-04-20T02:33:55.621Z,9.52
2023-04-20T02:36:21.968Z,9.66
2023-04-20T02:38:48.538Z,9.01
2023-04-20T02:41:14.877Z,9.02
2023-04-20T02:43:41.306Z,8.97
2023-04-20T02:46:09.506Z,8.89
2023-04-20T02:48:36.323Z,9.14
2023-04-20T02:51:02.793Z,9.04
2023-04-20T02:53:34.349Z,9.12
2023-04-20T02:56:11.777Z,9.28
2023-04-20T02:58:51.963Z,8.79
2023-04-20T03:01:26.454Z,9.00
2023-04-20T03:04:01.168Z,9.25
2023-04-20T03:06:28.619Z,9.22
2023-04-20T03:08:56.823Z,8.88
2023-04-20T03:11:46.349Z,9.03
2023-04-20T03:14:21.856Z,9.05
2023-04-20T03:16:48.582Z,9.32
2023-04-20T03:19:15.098Z,9.00
2023-04-20T03:21:43.002Z,9.22
2023-04-20T03:24:09.485Z,9.38
2023-04-20T03:26:36.873Z,9.07
2023-04-20T03:29:26.936Z,9.19
2023-04-20T03:31:53.478Z,9.18
2023-04-20T03:34:20.142Z,9.28
2023-04-20T03:36:46.858Z,9.30
2023-04-20T03:39:13.280Z,9.08
2023-04-20T03:41:39.658Z,8.94
2023-04-20T03:44:07.353Z,8.92
2023-04-20T03:46:33.949Z,8.83
2023-04-20T03:49:00.421Z,8.91
2023-04-20T03:51:26.880Z,9.14
2023-04-20T03:53:53.280Z,9.38
2023-04-20T03:56:19.702Z,8.79
2023-04-20T03:58:47.557Z,8.90
2023-04-20T04:01:18.431Z,8.87
2023-04-20T04:03:48.022Z,8.69
2023-04-20T04:06:14.602Z,8.69
2023-04-20T04:08:41.389Z,9.07
2023-04-20T04:11:07.761Z,8.51
2023-04-20T04:13:34.702Z,8.71
2023-04-20T04:16:03.158Z,8.92
2023-04-20T04:18:32.392Z,9.01
2023-04-20T04:21:01.478Z,8.57
2023-04-20T04:23:28.032Z,8.76
2023-04-20T04:26:13.308Z,8.55
2023-04-20T04:28:45.773Z,8.70
2023-04-20T04:31:19.434Z,8.60
2023-04-20T04:33:46.542Z,8.74
2023-04-20T04:36:21.575Z,8.76
2023-04-20T04:38:48.053Z,8.71
2023-04-20T04:41:14.435Z,8.60
2023-04-20T04:43:42.381Z,8.74
2023-04-20T04:46:18.767Z,8.74
2023-04-20T04:48:46.676Z,8.80
2023-04-20T04:51:13.138Z,8.96
2023-04-20T04:53:39.571Z,8.91
2023-04-20T04:56:06.844Z,8.83
2023-04-20T04:58:33.313Z,8.78
2023-04-20T05:00:59.665Z,8.97
2023-04-20T05:03:26.280Z,8.91
2023-04-20T05:05:52.837Z,9.01
2023-04-20T05:08:19.215Z,9.03
2023-04-20T05:10:45.585Z,9.16
2023-04-20T05:13:11.990Z,9.13
2023-04-20T05:15:38.364Z,9.01
2023-04-20T05:18:04.789Z,9.17
2023-04-20T05:20:31.275Z,9.28
2023-04-20T05:22:57.704Z,9.38
2023-04-20T05:25:24.037Z,9.22
2023-04-20T05:27:50.567Z,8.97
2023-04-20T05:30:20.709Z,8.94
2023-04-20T05:32:51.081Z,8.97
2023-04-20T05:35:18.496Z,8.81
2023-04-20T05:37:44.883Z,8.75
2023-04-20T05:40:11.716Z,9.03
2023-04-20T05:42:38.143Z,9.09
2023-04-20T05:45:04.943Z,9.48
2023-04-20T05:47:31.473Z,9.29
2023-04-20T05:49:57.937Z,9.27
2023-04-20T05:52:24.407Z,9.49
2023-04-20T05:54:50.947Z,9.53
2023-04-20T05:57:17.374Z,8.96
2023-04-20T05:59:43.753Z,8.95
2023-04-20T06:02:10.209Z,9.41
2023-04-20T06:04:36.997Z,9.20
2023-04-20T06:07:03.602Z,9.87
2023-04-20T06:09:30.190Z,9.27
2023-04-20T06:11:57.287Z,9.38
2023-04-20T06:14:23.658Z,9.36
2023-04-20T06:16:50.005Z,9.08
2023-04-20T06:19:16.539Z,9.12
2023-04-20T06:21:43.109Z,9.15
2023-04-20T06:24:09.642Z,9.25
2023-04-20T06:26:36.020Z,8.84
2023-04-20T06:29:02.445Z,9.07
2023-04-20T06:31:28.899Z,8.94
2023-04-20T06:33:55.352Z,9.47
2023-04-20T06:36:21.701Z,8.76
2023-04-20T06:38:48.288Z,8.71
2023-04-20T06:41:15.420Z,9.16
2023-04-20T06:43:42.272Z,8.76
2023-04-20T06:46:08.695Z,9.72
2023-04-20T06:48:35.162Z,9.11
2023-04-20T06:51:01.930Z,9.07
2023-04-20T06:53:28.368Z,9.57
2023-04-20T06:55:55.663Z,9.11
2023-04-20T06:58:22.120Z,8.71
2023-04-20T07:00:48.468Z,9.07
2023-04-20T07:03:15.351Z,9.00
2023-04-20T07:05:41.925Z,9.62
2023-04-20T07:08:09.522Z,9.63
2023-04-20T07:10:36.039Z,9.66
2023-04-20T07:13:02.390Z,8.70
2023-04-20T07:15:28.755Z,9.13
2023-04-20T07:17:55.427Z,9.47
2023-04-20T07:20:21.911Z,9.09
2023-04-20T07:22:48.407Z,8.70
2023-04-20T07:25:14.778Z,8.81
2023-04-20T07:27:41.296Z,8.78
2023-04-20T07:30:08.767Z,9.19
2023-04-20T07:32:35.389Z,9.31
2023-04-20T07:35:01.822Z,8.99
2023-04-20T07:37:28.434Z,8.60
2023-04-20T07:39:54.895Z,8.83
2023-04-20T07:42:21.872Z,8.83
2023-04-20T07:44:48.284Z,9.13
2023-04-20T07:47:14.698Z,9.14
2023-04-20T07:49:41.073Z,9.11
2023-04-20T07:52:16.324Z,9.13
2023-04-20T07:54:43.787Z,9.79
2023-04-20T07:59:54.095Z,9.12
2023-04-20T08:02:21.006Z,9.51
2023-04-20T08:04:48.886Z,9.21
2023-04-20T08:07:15.700Z,9.68
2023-04-20T08:09:42.128Z,9.54
2023-04-20T08:12:08.676Z,9.48
2023-04-20T08:14:35.144Z,9.24
2023-04-20T08:17:01.644Z,9.14
2023-04-20T08:19:28.026Z,9.75
2023-04-20T08:21:54.434Z,9.85
2023-04-20T08:24:20.916Z,9.92
2023-04-20T08:26:47.574Z,10.11
2023-04-20T08:29:13.975Z,9.81
2023-04-20T08:31:40.416Z,9.78
2023-04-20T08:34:06.841Z,9.66
2023-04-20T08:36:33.241Z,9.94
2023-04-20T08:38:59.656Z,9.72
2023-04-20T08:41:26.262Z,9.36
2023-04-20T08:43:52.682Z,10.15
2023-04-20T08:46:19.172Z,9.57
2023-04-20T08:48:45.675Z,9.87
2023-04-20T08:51:12.149Z,9.34
2023-04-20T08:53:38.549Z,9.54
2023-04-20T08:56:05.362Z,9.72
2023-04-20T08:58:32.238Z,9.55
2023-04-20T09:01:00.710Z,9.82
2023-04-20T09:03:27.646Z,9.76
2023-04-20T09:05:54.125Z,9.64
2023-04-20T09:08:21.630Z,9.86
2023-04-20T09:10:48.021Z,9.48
2023-04-20T09:13:14.389Z,9.52
2023-04-20T09:15:40.744Z,9.21
2023-04-20T09:18:07.244Z,9.43
2023-04-20T09:20:33.674Z,9.67
2023-04-20T09:23:00.140Z,9.66
2023-04-20T09:25:29.583Z,9.65
2023-04-20T09:27:56.242Z,10.00
2023-04-20T09:30:22.800Z,9.61
2023-04-20T09:32:49.346Z,10.24
2023-04-20T09:35:15.754Z,10.05
2023-04-20T09:37:42.132Z,10.14
2023-04-20T09:40:08.611Z,10.47
2023-04-20T09:42:34.999Z,9.80
2023-04-20T09:45:01.385Z,10.30
2023-04-20T09:47:29.803Z,10.73
2023-04-20T09:49:57.279Z,10.43
2023-04-20T09:52:24.008Z,10.67
2023-04-20T09:54:50.443Z,10.60
2023-04-20T09:57:16.939Z,10.68
2023-04-20T09:59:43.296Z,11.17
2023-04-20T10:02:10.181Z,10.60
2023-04-20T10:04:36.971Z,10.91
2023-04-20T10:07:06.202Z,11.06
2023-04-20T10:09:34.320Z,11.18
2023-04-20T10:12:00.685Z,11.49
2023-04-20T10:14:27.079Z,10.65
2023-04-20T10:16:53.457Z,10.27
2023-04-20T10:19:19.866Z,11.15
2023-04-20T10:21:46.317Z,10.86
2023-04-20T10:24:12.715Z,11.98
2023-04-20T10:26:39.162Z,12.01
2023-04-20T10:29:06.998Z,12.73
2023-04-20T10:31:33.423Z,11.89
2023-04-20T10:33:59.789Z,12.21
2023-04-20T10:36:26.412Z,12.55
2023-04-20T10:38:53.258Z,12.95
2023-04-20T10:41:20.955Z,12.14
2023-04-20T10:43:47.301Z,11.99
2023-04-20T10:46:13.718Z,12.37
2023-04-20T10:48:40.113Z,12.15
2023-04-20T10:51:06.519Z,12.01
2023-04-20T10:53:32.861Z,11.43
2023-04-20T10:55:59.575Z,11.27
2023-04-20T10:58:25.983Z,10.99
2023-04-20T11:00:52.426Z,11.09
2023-04-20T11:03:18.912Z,11.07
2023-04-20T11:05:45.437Z,11.05
2023-04-20T11:08:11.797Z,11.36
2023-04-20T11:10:38.182Z,11.49
2023-04-20T11:13:04.573Z,12.12
2023-04-20T11:15:31.031Z,12.44
2023-04-20T11:17:57.531Z,12.40
2023-04-20T11:20:23.860Z,12.24
2023-04-20T11:22:50.253Z,11.95
2023-04-20T11:25:16.713Z,12.31
2023-04-20T11:27:43.203Z,12.33
2023-04-20T11:30:09.928Z,12.10
2023-04-20T11:32:36.578Z,12.09
2023-04-20T11:35:07.068Z,12.24
2023-04-20T11:37:33.830Z,12.34
2023-04-20T11:40:00.485Z,12.57
2023-04-20T11:42:27.391Z,11.64
2023-04-20T11:44:53.745Z,12.54
2023-04-20T11:47:20.211Z,12.44
2023-04-20T11:49:46.629Z,11.67
2023-04-20T11:52:13.008Z,11.94
2023-04-20T11:54:39.408Z,12.82
2023-04-20T11:57:05.741Z,13.10
2023-04-20T11:59:32.773Z,13.60
2023-04-20T12:02:02.680Z,13.58
2023-04-20T12:04:29.333Z,13.35
2023-04-20T12:06:56.060Z,13.99
2023-04-20T12:09:22.532Z,13.49
2023-04-20T12:11:48.938Z,12.79
2023-04-20T12:14:15.374Z,12.78
2023-04-20T12:16:41.728Z,12.53
2023-04-20T12:19:09.029Z,12.37
2023-04-20T12:21:35.575Z,13.03
2023-04-20T12:24:02.041Z,13.99
2023-04-20T12:26:37.421Z,13.06
2023-04-20T12:29:04.670Z,13.35
2023-04-20T12:31:31.119Z,13.70
2023-04-20T12:33:57.686Z,13.55
2023-04-20T12:36:24.150Z,12.89
2023-04-20T12:38:50.538Z,13.56
2023-04-20T12:41:17.007Z,13.51
2023-04-20T12:43:43.404Z,13.59
2023-04-20T12:46:09.797Z,14.06
2023-04-20T12:48:36.433Z,14.27
2023-04-20T12:51:02.870Z,14.33
2023-04-20T12:53:29.497Z,14.68
2023-04-20T12:56:01.182Z,14.40
2023-04-20T12:58:27.978Z,14.28
2023-04-20T13:00:54.467Z,14.08
2023-04-20T13:03:21.087Z,14.41
2023-04-20T13:05:47.675Z,13.89
2023-04-20T13:08:14.071Z,13.95
2023-04-20T13:10:41.961Z,13.67
2023-04-20T13:13:08.542Z,13.81
2023-04-20T13:18:04.438Z,13.93
2023-04-20T13:20:30.896Z,13.53
2023-04-20T13:23:01.038Z,13.89
2023-04-20T13:25:27.942Z,14.00
2023-04-20T13:27:54.369Z,13.86
2023-04-20T13:30:22.321Z,14.00
2023-04-20T13:32:50.654Z,13.81
2023-04-20T13:35:17.046Z,14.13
2023-04-20T13:37:43.402Z,14.15
2023-04-20T13:40:10.127Z,14.23
2023-04-20T13:42:36.513Z,14.70
2023-04-20T13:45:03.294Z,14.61
2023-04-20T13:47:29.652Z,14.44
2023-04-20T13:49:56.792Z,14.01
2023-04-20T13:52:23.311Z,14.76
2023-04-20T13:54:49.686Z,14.92
2023-04-20T13:57:16.371Z,15.45
2023-04-20T13:59:42.736Z,14.78
2023-04-20T14:02:09.177Z,14.50
2023-04-20T14:04:35.591Z,14.97
2023-04-20T14:07:01.959Z,14.67
2023-04-20T14:09:28.593Z,14.11
2023-04-20T14:11:58.134Z,13.63
2023-04-20T14:14:24.592Z,13.35
2023-04-20T14:16:51.114Z,13.59
2023-04-20T14:19:17.431Z,14.02
2023-04-20T14:21:47.359Z,13.89
2023-04-20T14:24:13.753Z,13.28
2023-04-20T14:26:40.113Z,13.29
2023-04-20T14:29:06.515Z,14.14
2023-04-20T14:31:32.983Z,13.72
2023-04-20T14:33:59.512Z,13.88
2023-04-20T14:36:25.908Z,13.58
2023-04-20T14:38:52.290Z,13.54
2023-04-20T14:41:18.689Z,13.72
2023-04-20T14:43:45.082Z,14.44
2023-04-20T14:46:11.506Z,13.86
2023-04-20T14:48:40.979Z,13.00
2023-04-20T14:51:07.389Z,13.29
2023-04-20T14:53:33.782Z,14.15
2023-04-20T14:56:00.181Z,13.96
2023-04-20T14:58:26.549Z,14.10
2023-04-20T15:00:54.016Z,14.10
2023-04-20T15:03:20.708Z,13.34
2023-04-20T15:05:47.501Z,12.99
2023-04-20T15:08:14.061Z,13.17
2023-04-20T15:10:40.463Z,13.70
2023-04-20T15:13:06.874Z,13.89
2023-04-20T15:15:41.574Z,14.39
2023-04-20T15:18:14.874Z,14.21
2023-04-20T15:20:41.315Z,15.49
2023-04-20T15:23:07.731Z,15.11
2023-04-20T15:25:34.068Z,14.27
2023-04-20T15:28:00.411Z,14.07
2023-04-20T15:30:26.886Z,14.10
2023-04-20T15:32:53.324Z,14.14
2023-04-20T15:35:19.780Z,13.99
2023-04-20T15:37:46.456Z,14.83
2023-04-20T15:40:12.769Z,14.51
2023-04-20T15:42:39.189Z,14.30
2023-04-20T15:45:05.719Z,14.25
2023-04-20T15:47:32.196Z,14.48
2023-04-20T15:50:01.497Z,14.65
2023-04-20T15:52:28.135Z,14.81
2023-04-20T15:54:54.518Z,13.95
2023-04-20T15:57:21.022Z,14.14
2023-04-20T15:59:47.380Z,14.37
2023-04-20T16:02:13.803Z,14.77
2023-04-20T16:04:40.464Z,14.93
2023-04-20T16:07:06.935Z,14.84
2023-04-20T16:09:33.306Z,14.86
2023-04-20T16:11:59.746Z,14.46
2023-04-20T16:14:26.142Z,14.62
2023-04-20T16:16:52.533Z,14.60
2023-04-20T16:19:19.184Z,14.50
2023-04-20T16:21:45.609Z,15.11
2023-04-20T16:24:12.029Z,14.94
2023-04-20T16:26:39.521Z,14.63
2023-04-20T16:29:07.152Z,14.98
2023-04-20T16:31:35.336Z,14.92
2023-04-20T16:34:01.794Z,15.27
2023-04-20T16:36:28.161Z,15.07
2023-04-20T16:38:54.628Z,14.30
2023-04-20T16:41:21.705Z,14.59
2023-04-20T16:43:48.141Z,15.21
2023-04-20T16:46:16.306Z,15.03
2023-04-20T16:48:42.746Z,14.95
2023-04-20T16:51:09.151Z,14.70
2023-04-20T16:53:35.546Z,15.09
2023-04-20T16:56:01.934Z,14.81
2023-04-20T16:58:28.346Z,15.52
2023-04-20T17:00:54.841Z,15.55
2023-04-20T17:03:21.496Z,15.63
2023-04-20T17:05:47.931Z,15.94
2023-04-20T17:08:14.423Z,15.17
2023-04-20T17:10:40.820Z,14.72
2023-04-20T17:13:07.245Z,14.87
2023-04-20T17:15:33.679Z,14.58
2023-04-20T17:18:00.380Z,14.58
2023-04-20T17:20:26.836Z,15.08
2023-04-20T17:22:53.247Z,14.09
2023-04-20T17:25:19.755Z,14.42
2023-04-20T17:27:46.230Z,14.04
2023-04-20T17:30:12.672Z,14.15
2023-04-20T17:32:39.104Z,14.24
2023-04-20T17:35:05.538Z,13.60
2023-04-20T17:37:31.912Z,14.10
2023-04-20T17:39:58.350Z,14.42
2023-04-20T17:42:24.797Z,14.31
2023-04-20T17:44:51.125Z,13.98
2023-04-20T17:47:17.478Z,13.91
2023-04-20T17:49:43.967Z,14.16
2023-04-20T17:52:12.556Z,13.71
2023-04-20T17:54:39.184Z,13.60
2023-04-20T17:57:06.942Z,13.74
2023-04-20T17:59:33.319Z,13.57
2023-04-20T18:01:59.980Z,12.70
2023-04-20T18:04:27.273Z,12.81
2023-04-20T18:06:53.768Z,12.52
2023-04-20T18:09:20.411Z,12.82
2023-04-20T18:11:46.980Z,13.09
2023-04-20T18:14:13.531Z,12.98
2023-04-20T18:16:40.251Z,12.74
2023-04-20T18:19:06.677Z,13.33
2023-04-20T18:21:34.700Z,12.69
2023-04-20T18:24:01.832Z,13.24
2023-04-20T18:26:28.564Z,13.43
2023-04-20T18:28:54.955Z,13.53
2023-04-20T18:31:21.381Z,13.25
2023-04-20T18:33:47.797Z,12.76
2023-04-20T18:36:14.179Z,12.99
2023-04-20T18:38:40.673Z,12.88
2023-04-20T18:41:07.039Z,12.93
2023-04-20T18:43:33.673Z,12.79
2023-04-20T18:46:00.241Z,12.44
2023-04-20T18:48:26.753Z,11.93
2023-04-20T18:50:53.128Z,12.05
2023-04-20T18:53:19.509Z,12.33
2023-04-20T18:55:46.513Z,12.41
2023-04-20T18:58:12.897Z,12.39
2023-04-20T19:00:39.296Z,12.22
2023-04-20T19:03:06.078Z,11.75
2023-04-20T19:05:32.988Z,12.16
2023-04-20T19:07:59.445Z,11.85
2023-04-20T19:10:26.517Z,12.00
2023-04-20T19:12:52.970Z,12.09
2023-04-20T19:15:25.408Z,12.02
2023-04-20T19:17:51.946Z,12.42
2023-04-20T19:20:18.364Z,11.97
2023-04-20T19:22:44.710Z,12.25
2023-04-20T19:25:11.056Z,12.52
2023-04-20T19:27:37.477Z,11.79
2023-04-20T19:30:03.897Z,11.79
2023-04-20T19:32:30.460Z,11.84
2023-04-20T19:34:59.076Z,11.52
2023-04-20T19:37:25.474Z,11.52
2023-04-20T19:39:51.838Z,11.80
2023-04-20T19:42:18.691Z,11.94
2023-04-20T19:44:45.084Z,11.97
2023-04-20T19:47:11.404Z,12.09
2023-04-20T19:49:37.797Z,11.88
2023-04-20T19:52:04.307Z,12.12
2023-04-20T19:54:30.904Z,11.91
2023-04-20T19:56:57.790Z,11.69
2023-04-20T19:59:24.232Z,11.35
2023-04-20T20:01:50.978Z,11.51
2023-04-20T20:04:17.542Z,11.55
2023-04-20T20:06:48.408Z,11.46
2023-04-20T20:09:14.766Z,11.13
2023-04-20T20:11:47.957Z,11.08
2023-04-20T20:14:14.321Z,11.24
2023-04-20T20:16:40.677Z,11.70
2023-04-20T20:19:07.576Z,11.33
2023-04-20T20:21:33.919Z,11.36
2023-04-20T20:24:00.484Z,11.04
2023-04-20T20:26:27.046Z,11.28
2023-04-20T20:28:53.628Z,10.98
2023-04-20T20:31:20.356Z,11.06
2023-04-20T20:33:46.795Z,11.12
2023-04-20T20:36:13.207Z,11.32
2023-04-20T20:38:40.669Z,11.46
2023-04-20T20:41:07.190Z,11.63
2023-04-20T20:43:34.489Z,10.98
2023-04-20T20:46:01.222Z,11.19
2023-04-20T20:48:27.900Z,11.17
2023-04-20T20:50:54.251Z,11.02
2023-04-20T20:53:20.889Z,11.24
2023-04-20T20:55:47.358Z,11.47
2023-04-20T20:58:13.731Z,11.64
2023-04-20T21:00:50.494Z,11.10
2023-04-20T21:03:17.046Z,11.39
2023-04-20T21:05:44.359Z,11.30
2023-04-20T21:08:10.732Z,11.49
2023-04-20T21:10:37.264Z,11.36
2023-04-20T21:13:04.198Z,11.61
2023-04-20T21:15:30.873Z,11.49
2023-04-20T21:17:57.518Z,11.52
2023-04-20T21:20:23.913Z,11.57
2023-04-20T21:22:50.655Z,11.43
2023-04-20T21:25:19.124Z,11.40
2023-04-20T21:27:45.619Z,11.86
2023-04-20T21:30:12.164Z,11.62
2023-04-20T21:32:38.600Z,12.07
2023-04-20T21:35:05.402Z,11.76
2023-04-20T21:37:31.881Z,11.71
2023-04-20T21:39:58.567Z,11.37
2023-04-20T21:42:25.388Z,11.56
2023-04-20T21:44:51.927Z,11.79
2023-04-20T21:47:18.270Z,11.71
2023-04-20T21:49:44.717Z,11.56
2023-04-20T21:52:11.045Z,11.83
2023-04-20T21:54:37.982Z,11.80
2023-04-20T21:57:04.332Z,11.67
2023-04-20T21:59:30.801Z,12.17
2023-04-20T22:01:57.336Z,11.41
2023-04-20T22:04:25.801Z,11.23
2023-04-20T22:06:53.973Z,11.23
2023-04-20T22:09:20.910Z,11.33
2023-04-20T22:11:49.964Z,11.54
2023-04-20T22:14:16.797Z,11.76
2023-04-20T22:16:43.243Z,11.32
2023-04-20T22:19:09.600Z,11.10
2023-04-20T22:21:35.971Z,11.58
2023-04-20T22:24:02.502Z,11.34
2023-04-20T22:26:28.892Z,11.07
2023-04-20T22:28:55.358Z,11.21
2023-04-20T22:31:21.776Z,10.83
2023-04-20T22:33:48.163Z,10.90
2023-04-20T22:36:14.537Z,10.85
2023-04-20T22:38:41.018Z,11.10
2023-04-20T22:41:07.475Z,10.74
2023-04-20T22:43:33.834Z,10.86
2023-04-20T22:46:00.224Z,11.13
2023-04-20T22:48:26.557Z,10.71
2023-04-20T22:50:53.371Z,10.67
2023-04-20T22:53:19.765Z,10.62
2023-04-20T22:55:46.238Z,10.94
2023-04-20T22:58:12.705Z,10.63
2023-04-20T23:00:39.238Z,10.52
2023-04-20T23:03:05.723Z,10.57
2023-04-20T23:05:32.167Z,10.71
2023-04-20T23:08:00.479Z,10.67
2023-04-20T23:10:28.551Z,10.65
2023-04-20T23:12:55.406Z,10.70
2023-04-20T23:15:21.931Z,10.98
2023-04-20T23:17:48.357Z,10.61
2023-04-20T23:20:15.102Z,10.97
2023-04-20T23:22:41.529Z,10.90
2023-04-20T23:25:08.017Z,10.71
2023-04-20T23:27:34.362Z,10.69
2023-04-20T23:30:00.893Z,10.81
2023-04-20T23:32:27.364Z,10.82
2023-04-20T23:34:53.705Z,10.80
2023-04-20T23:37:20.260Z,10.75
2023-04-20T23:39:46.678Z,10.78
2023-04-20T23:42:13.037Z,10.74
2023-04-20T23:44:39.382Z,10.52
2023-04-20T23:47:05.926Z,10.47
2023-04-20T23:49:32.643Z,10.59
2023-04-20T23:51:59.356Z,10.75
2023-04-20T23:54:26.156Z,10.43
2023-04-20T23:56:52.526Z,10.29
2023-04-20T23:59:19.192Z,10.24
